createdAt,value
2024-01-24T00:00:36.110Z,99713.63
2024-01-24T00:03:32.600Z,99719.94
2024-01-24T00:06:23.329Z,99722.34
2024-01-24T00:09:22.181Z,99718.91
2024-01-24T00:12:20.730Z,99710.84
2024-01-24T00:15:09.612Z,99707.97
2024-01-24T00:18:22.081Z,99713.06
2024-01-24T00:21:23.138Z,99712.88
2024-01-24T00:24:12.295Z,99707.25
2024-01-24T00:27:04.919Z,99705.94
2024-01-24T00:29:59.013Z,99697.34
2024-01-24T00:32:55.021Z,99712.16
2024-01-24T00:35:45.336Z,99709.22
2024-01-24T00:38:44.019Z,99704.66
2024-01-24T00:41:36.504Z,99697.53
2024-01-24T00:44:39.100Z,99702.13
2024-01-24T00:47:31.685Z,99698.66
2024-01-24T00:50:31.008Z,99707.97
2024-01-24T00:53:29.046Z,99697.78
2024-01-24T00:56:30.273Z,99690.97
2024-01-24T00:59:25.596Z,99691.41
2024-01-24T01:02:19.856Z,99690.78
2024-01-24T01:05:08.506Z,99685.13
2024-01-24T01:08:04.846Z,99693.72
2024-01-24T01:11:00.836Z,99696.38
2024-01-24T01:13:55.184Z,99673.91
2024-01-24T01:16:58.726Z,99679.31
2024-01-24T01:19:51.504Z,99668.78
2024-01-24T01:22:45.831Z,99660.97
2024-01-24T01:25:39.497Z,99661.69
2024-01-24T01:28:33.554Z,99657.72
2024-01-24T01:31:36.022Z,99669.19
2024-01-24T01:34:35.409Z,99656.44
2024-01-24T01:37:25.705Z,99666.44
2024-01-24T01:40:15.896Z,99668.16
2024-01-24T01:43:19.013Z,99669.06
2024-01-24T01:46:22.361Z,99667.25
2024-01-24T01:49:17.760Z,99675.09
2024-01-24T01:52:11.329Z,99662.72
2024-01-24T01:55:02.061Z,99645.53
2024-01-24T01:57:49.200Z,99649.44
2024-01-24T02:00:46.690Z,99655.13
2024-01-24T02:03:35.091Z,99655.25
2024-01-24T02:06:34.337Z,99652.47
2024-01-24T02:09:29.569Z,99650.63
2024-01-24T02:12:20.196Z,99646.38
2024-01-24T02:15:13.568Z,99642.75
2024-01-24T02:18:05.619Z,99648.13
2024-01-24T02:21:01.095Z,99645.97
2024-01-24T02:23:49.807Z,99657.44
2024-01-24T02:26:50.134Z,99651.88
2024-01-24T02:29:44.531Z,99659.47
2024-01-24T02:32:43.950Z,99650.41
2024-01-24T02:35:40.652Z,99650.06
2024-01-24T02:38:31.674Z,99650.97
2024-01-24T02:41:35.048Z,99655.03
2024-01-24T02:44:28.345Z,99653.44
2024-01-24T02:47:24.161Z,99651.16
2024-01-24T02:50:14.757Z,99649.06
2024-01-24T02:53:18.350Z,99648.28
2024-01-24T02:56:11.996Z,99658.38
2024-01-24T02:59:08.010Z,99663.84
2024-01-24T03:01:56.733Z,99665.69
2024-01-24T03:04:53.212Z,99665.34
2024-01-24T03:07:49.266Z,99654.97
2024-01-24T03:10:38.814Z,99646.44
2024-01-24T03:13:32.261Z,99644.44
2024-01-24T03:16:18.877Z,99653.31
2024-01-24T03:19:17.662Z,99626.47
2024-01-24T03:22:10.891Z,99631.13
2024-01-24T03:24:57.424Z,99621.22
2024-01-24T03:27:43.697Z,99636.34
2024-01-24T03:30:37.673Z,99617.88
2024-01-24T03:33:33.907Z,99618.84
2024-01-24T03:36:23.412Z,99619.50
2024-01-24T03:39:16.557Z,99621.06
2024-01-24T03:42:08.030Z,99618.75
2024-01-24T03:45:00.305Z,99611.84
2024-01-24T03:47:51.360Z,99624.59
2024-01-24T03:50:45.129Z,99624.34
2024-01-24T03:53:37.702Z,99605.78
2024-01-24T03:56:29.148Z,99621.91
2024-01-24T03:59:17.282Z,99617.75
2024-01-24T04:02:15.107Z,99610.53
2024-01-24T04:05:08.714Z,99616.69
2024-01-24T04:08:01.725Z,99598.13
2024-01-24T04:10:54.836Z,99610.53
2024-01-24T04:13:46.659Z,99596.19
2024-01-24T04:16:43.620Z,99587.38
2024-01-24T04:19:36.222Z,99608.03
2024-01-24T04:22:28.627Z,99602.28
2024-01-24T04:25:19.162Z,99582.31
2024-01-24T04:28:13.059Z,99581.94
2024-01-24T04:31:00.807Z,99589.81
2024-01-24T04:34:01.223Z,99589.88
2024-01-24T04:36:55.597Z,99583.28
2024-01-24T04:39:43.917Z,99583.03
2024-01-24T04:42:34.516Z,99586.13
2024-01-24T04:45:27.599Z,99589.47
2024-01-24T04:48:22.734Z,99583.22
2024-01-24T04:51:17.609Z,99587.34
2024-01-24T04:54:15.555Z,99605.91
2024-01-24T04:57:07.134Z,99610.75
2024-01-24T05:00:05.427Z,99601.78
2024-01-24T05:02:57.508Z,99600.44
2024-01-24T05:06:04.755Z,99579.31
2024-01-24T05:09:00.380Z,99597.81
2024-01-24T05:11:49.439Z,99588.31
2024-01-24T05:14:41.331Z,99574.91
2024-01-24T05:17:41.821Z,99581.34
2024-01-24T05:20:32.492Z,99572.44
2024-01-24T05:23:23.812Z,99590.31
2024-01-24T05:26:19.108Z,99586.16
2024-01-24T05:29:08.967Z,99574.63
2024-01-24T05:32:03.953Z,99551.75
2024-01-24T05:34:52.498Z,99542.41
2024-01-24T05:37:43.892Z,99564.31
2024-01-24T05:40:36.022Z,99546.13
2024-01-24T05:43:30.441Z,99556.63
2024-01-24T05:46:19.814Z,99563.63
2024-01-24T05:49:10.463Z,99566.31
2024-01-24T05:52:00.114Z,99561.84
2024-01-24T05:54:50.147Z,99562.25
2024-01-24T05:57:50.119Z,99562.44
2024-01-24T06:00:45.287Z,99564.38
2024-01-24T06:03:34.130Z,99560.38
2024-01-24T06:06:26.607Z,99551.81
2024-01-24T06:09:14.471Z,99559.47
2024-01-24T06:12:12.199Z,99550.53
2024-01-24T06:15:12.066Z,99557.41
2024-01-24T06:18:07.397Z,99546.13
2024-01-24T06:20:53.962Z,99549.56
2024-01-24T06:23:44.854Z,99542.75
2024-01-24T06:26:32.985Z,99553.06
2024-01-24T06:30:14.901Z,99552.53
2024-01-24T06:32:55.750Z,99536.78
2024-01-24T06:36:12.462Z,99548.09
2024-01-24T06:39:04.721Z,99534.25
2024-01-24T06:42:15.486Z,99528.19
2024-01-24T06:45:17.670Z,99543.16
2024-01-24T06:48:09.403Z,99535.88
2024-01-24T06:50:59.000Z,99549.25
2024-01-24T06:53:59.042Z,99536.72
2024-01-24T06:56:47.337Z,99538.22
2024-01-24T06:59:57.721Z,99540.72
2024-01-24T07:03:12.116Z,99536.69
2024-01-24T07:07:08.247Z,99536.13
2024-01-24T07:10:11.978Z,99531.06
2024-01-24T07:13:04.867Z,99519.53
2024-01-24T07:16:32.455Z,99507.94
2024-01-24T07:22:43.595Z,99505.38
2024-01-24T07:25:31.266Z,99504.84
2024-01-24T07:28:23.040Z,99495.06
2024-01-24T07:31:13.532Z,99481.13
2024-01-24T07:34:09.968Z,99470.97
2024-01-24T07:37:03.927Z,99468.38
2024-01-24T07:40:03.761Z,99459.13
2024-01-24T07:43:12.990Z,99452.22
2024-01-24T07:46:28.012Z,99438.00
2024-01-24T07:49:25.788Z,99439.78
2024-01-24T07:52:41.051Z,99427.34
2024-01-24T07:55:54.201Z,99422.25
2024-01-24T08:02:21.037Z,99406.50
2024-01-24T08:05:43.831Z,99393.53
2024-01-24T08:08:35.537Z,99391.16
2024-01-24T08:11:34.928Z,99388.41
2024-01-24T08:14:42.450Z,99382.47
2024-01-24T08:17:40.497Z,99370.22
2024-01-24T08:20:32.324Z,99370.25
2024-01-24T08:23:48.808Z,99358.94
2024-01-24T08:30:02.676Z,99340.53
2024-01-24T08:32:49.898Z,99331.22
2024-01-24T08:35:41.432Z,99333.56
2024-01-24T08:38:27.695Z,99331.69
2024-01-24T08:41:15.500Z,99334.84
2024-01-24T08:44:07.417Z,99340.22
2024-01-24T08:47:03.060Z,99317.56
2024-01-24T08:50:00.114Z,99329.63
2024-01-24T08:52:55.892Z,99325.38
2024-01-24T08:55:48.040Z,99317.91
2024-01-24T08:58:35.472Z,99312.94
2024-01-24T09:01:31.182Z,99292.44
2024-01-24T09:04:27.457Z,99297.72
2024-01-24T09:07:23.696Z,99279.78
2024-01-24T09:10:11.837Z,99270.16
2024-01-24T09:13:31.241Z,99288.75
2024-01-24T09:16:21.743Z,99266.78
2024-01-24T09:19:17.542Z,99238.53
2024-01-24T09:22:09.128Z,99239.69
2024-01-24T09:24:56.484Z,99231.41
2024-01-24T09:27:50.384Z,99216.47
2024-01-24T09:30:55.666Z,99205.88
2024-01-24T09:34:18.829Z,99205.56
2024-01-24T09:41:06.126Z,99186.66
2024-01-24T09:44:00.825Z,99165.59
2024-01-24T09:46:56.257Z,99174.28
2024-01-24T09:49:52.383Z,99168.03
2024-01-24T09:52:44.885Z,99158.13
2024-01-24T09:55:38.555Z,99151.44
2024-01-24T09:58:28.672Z,99150.16
2024-01-24T10:01:18.247Z,99132.59
2024-01-24T10:04:06.703Z,99128.00
2024-01-24T10:06:53.953Z,99116.22
2024-01-24T10:09:42.961Z,99107.53
2024-01-24T10:12:28.813Z,99086.28
2024-01-24T10:15:26.917Z,99076.25
2024-01-24T10:18:26.233Z,99070.13
2024-01-24T10:21:14.924Z,99051.41
2024-01-24T10:24:02.630Z,99039.56
2024-01-24T10:26:49.943Z,99034.44
2024-01-24T10:29:51.057Z,99016.19
2024-01-24T10:32:50.251Z,98994.25
2024-01-24T10:35:41.522Z,98997.41
2024-01-24T10:38:32.590Z,98980.75
2024-01-24T10:41:39.147Z,98978.50
2024-01-24T10:44:43.589Z,98970.22
2024-01-24T10:47:41.708Z,98958.72
2024-01-24T10:50:31.544Z,98959.06
2024-01-24T10:53:19.717Z,98955.13
2024-01-24T10:56:10.397Z,98937.66
2024-01-24T10:59:08.259Z,98932.97
2024-01-24T11:01:58.937Z,98916.09
2024-01-24T11:04:53.424Z,98904.16
2024-01-24T11:07:56.184Z,98903.25
2024-01-24T11:10:47.766Z,98892.66
2024-01-24T11:13:44.362Z,98884.09
2024-01-24T11:16:44.285Z,98887.66
2024-01-24T11:19:35.449Z,98878.56
2024-01-24T11:22:30.733Z,98876.41
2024-01-24T11:25:44.112Z,98868.69
2024-01-24T11:28:32.098Z,98868.66
2024-01-24T11:35:39.632Z,98866.25
2024-01-24T11:38:36.827Z,98858.34
2024-01-24T11:41:28.370Z,98845.59
2024-01-24T11:44:26.815Z,98837.44
2024-01-24T11:47:16.819Z,98835.97
2024-01-24T11:50:03.544Z,98837.03
2024-01-24T11:52:59.392Z,98828.41
2024-01-24T11:56:03.763Z,98822.84
2024-01-24T11:58:51.927Z,98810.94
2024-01-24T12:01:38.340Z,98806.94
2024-01-24T12:04:45.992Z,98813.56
2024-01-24T12:07:49.918Z,98796.63
2024-01-24T12:10:50.858Z,98800.41
2024-01-24T12:13:55.937Z,98797.16
2024-01-24T12:16:50.934Z,98799.38
2024-01-24T12:19:46.289Z,98795.06
2024-01-24T12:22:48.948Z,98790.22
2024-01-24T12:25:44.574Z,98779.47
2024-01-24T12:28:31.623Z,98786.03
2024-01-24T12:31:18.001Z,98773.53
2024-01-24T12:34:15.482Z,98781.22
2024-01-24T12:37:02.176Z,98776.75
2024-01-24T12:39:59.310Z,98781.31
2024-01-24T12:43:03.708Z,98777.97
2024-01-24T12:45:57.800Z,98772.03
2024-01-24T12:49:07.952Z,98765.88
2024-01-24T12:52:18.018Z,98770.91
2024-01-24T12:55:14.984Z,98756.94
2024-01-24T12:58:17.480Z,98759.09
2024-01-24T13:01:12.771Z,98774.66
2024-01-24T13:04:05.551Z,98779.13
2024-01-24T13:07:14.356Z,98772.88
2024-01-24T13:10:10.704Z,98765.41
2024-01-24T13:13:14.332Z,98771.28
2024-01-24T13:16:02.032Z,98762.84
2024-01-24T13:19:08.140Z,98756.63
2024-01-24T13:22:05.462Z,98745.28
2024-01-24T13:25:04.470Z,98733.72
2024-01-24T13:28:17.052Z,98718.91
2024-01-24T13:31:13.645Z,98707.53
2024-01-24T13:34:05.680Z,98711.00
2024-01-24T13:37:10.464Z,98729.06
2024-01-24T13:40:17.187Z,98716.44
2024-01-24T13:43:22.754Z,98695.19
2024-01-24T13:46:20.781Z,98674.94
2024-01-24T13:49:23.330Z,98682.47
2024-01-24T13:52:27.969Z,98656.88
2024-01-24T13:55:17.940Z,98655.28
2024-01-24T13:58:14.573Z,98636.13
2024-01-24T14:01:12.950Z,98644.19
2024-01-24T14:07:54.171Z,98622.84
2024-01-24T14:10:52.449Z,98616.97
2024-01-24T14:13:50.788Z,98613.63
2024-01-24T14:16:41.925Z,98592.88
2024-01-24T14:20:05.114Z,98588.34
2024-01-24T14:23:04.290Z,98562.84
2024-01-24T14:26:02.886Z,98552.03
2024-01-24T14:28:50.868Z,98548.72
2024-01-24T14:31:46.853Z,98553.06
2024-01-24T14:34:42.155Z,98538.38
2024-01-24T14:37:35.235Z,98524.81
2024-01-24T14:40:38.868Z,98523.44
2024-01-24T14:43:35.931Z,98526.59
2024-01-24T14:46:35.946Z,98497.34
2024-01-24T14:49:49.771Z,98482.28
2024-01-24T14:52:36.812Z,98476.97
2024-01-24T14:55:37.609Z,98483.19
2024-01-24T14:58:30.780Z,98479.50
2024-01-24T15:01:49.335Z,98469.19
2024-01-24T15:04:55.952Z,98468.78
2024-01-24T15:07:51.446Z,98468.00
2024-01-24T15:10:40.832Z,98465.59
2024-01-24T15:13:49.400Z,98451.88
2024-01-24T15:16:49.904Z,98426.31
2024-01-24T15:19:51.647Z,98431.53
2024-01-24T15:22:41.844Z,98431.97
2024-01-24T15:25:51.577Z,98417.03
2024-01-24T15:28:40.458Z,98418.22
2024-01-24T15:31:51.228Z,98405.44
2024-01-24T15:34:53.577Z,98389.97
2024-01-24T15:38:00.750Z,98372.59
2024-01-24T15:44:02.919Z,98388.31
2024-01-24T15:46:57.667Z,98372.78
2024-01-24T15:50:01.155Z,98349.34
2024-01-24T15:52:52.762Z,98362.41
2024-01-24T15:55:52.030Z,98369.81
2024-01-24T15:58:59.785Z,98350.09
2024-01-24T16:01:57.366Z,98328.34
2024-01-24T16:05:18.432Z,98334.44
2024-01-24T16:08:24.747Z,98350.09
2024-01-24T16:11:21.440Z,98348.69
2024-01-24T16:14:18.625Z,98340.72
2024-01-24T16:17:26.355Z,98323.16
2024-01-24T16:20:28.776Z,98350.06
2024-01-24T16:23:24.652Z,98351.28
2024-01-24T16:26:16.533Z,98322.81
2024-01-24T16:29:10.231Z,98313.31
2024-01-24T16:32:04.401Z,98322.59
2024-01-24T16:34:57.560Z,98323.59
2024-01-24T16:37:46.922Z,98317.25
2024-01-24T16:43:37.365Z,98309.28
2024-01-24T16:46:31.474Z,98287.59
2024-01-24T16:49:27.544Z,98302.44
2024-01-24T16:52:17.107Z,98290.88
2024-01-24T16:55:12.536Z,98275.03
2024-01-24T16:58:16.454Z,98262.22
2024-01-24T17:01:11.355Z,98274.00
2024-01-24T17:04:13.276Z,98270.34
2024-01-24T17:07:03.438Z,98278.47
2024-01-24T17:09:58.532Z,98257.72
2024-01-24T17:12:57.459Z,98258.06
2024-01-24T17:15:52.492Z,98251.94
2024-01-24T17:18:43.815Z,98237.94
2024-01-24T17:21:29.388Z,98242.78
2024-01-24T17:24:20.612Z,98243.81
2024-01-24T17:27:27.804Z,98229.69
2024-01-24T17:30:20.505Z,98233.47
2024-01-24T17:33:15.265Z,98229.34
2024-01-24T17:36:12.514Z,98231.94
2024-01-24T17:39:03.197Z,98214.00
2024-01-24T17:44:51.138Z,98181.28
2024-01-24T17:47:43.295Z,98197.63
2024-01-24T17:50:38.851Z,98197.72
2024-01-24T17:53:39.667Z,98188.56
2024-01-24T17:59:41.463Z,98191.22
2024-01-24T18:02:42.718Z,98169.03
2024-01-24T18:06:04.968Z,98176.59
2024-01-24T18:09:10.567Z,98169.94
2024-01-24T18:12:15.558Z,98175.81
2024-01-24T18:15:11.265Z,98160.84
2024-01-24T18:18:15.883Z,98162.47
2024-01-24T18:21:31.574Z,98139.84
2024-01-24T18:24:23.910Z,98146.03
2024-01-24T18:27:21.847Z,98141.03
2024-01-24T18:30:28.416Z,98141.47
2024-01-24T18:33:33.069Z,98140.88
2024-01-24T18:36:42.700Z,98132.72
2024-01-24T18:40:00.429Z,98107.13
2024-01-24T18:42:56.193Z,98134.91
2024-01-24T18:46:05.684Z,98106.72
2024-01-24T18:49:05.709Z,98110.41
2024-01-24T18:52:03.912Z,98118.34
2024-01-24T18:54:55.960Z,98108.00
2024-01-24T18:57:53.888Z,98094.19
2024-01-24T19:00:53.406Z,98110.63
2024-01-24T19:04:00.612Z,98081.53
2024-01-24T19:06:57.309Z,98084.38
2024-01-24T19:09:50.438Z,98091.09
2024-01-24T19:12:44.443Z,98079.84
2024-01-24T19:15:40.325Z,98079.91
2024-01-24T19:18:32.868Z,98066.59
2024-01-24T19:21:30.608Z,98071.63
2024-01-24T19:24:21.228Z,98072.13
2024-01-24T19:27:16.865Z,98069.94
2024-01-24T19:30:11.655Z,98060.56
2024-01-24T19:33:12.342Z,98052.72
2024-01-24T19:36:13.459Z,98056.03
2024-01-24T19:39:12.754Z,98066.22
2024-01-24T19:42:06.410Z,98046.88
2024-01-24T19:45:04.289Z,98062.03
2024-01-24T19:47:56.413Z,98052.63
2024-01-24T19:50:54.298Z,98038.00
2024-01-24T19:53:54.422Z,98036.34
2024-01-24T19:56:47.596Z,98029.00
2024-01-24T19:59:37.522Z,98042.78
2024-01-24T20:02:28.864Z,98041.00
2024-01-24T20:05:28.078Z,98043.84
2024-01-24T20:08:35.194Z,98047.78
2024-01-24T20:11:32.922Z,98044.88
2024-01-24T20:14:45.341Z,98044.03
2024-01-24T20:17:50.832Z,98038.81
2024-01-24T20:20:53.945Z,98037.03
2024-01-24T20:23:46.363Z,98027.19
2024-01-24T20:26:35.965Z,98030.53
2024-01-24T20:29:39.386Z,98033.41
2024-01-24T20:32:31.999Z,98019.53
2024-01-24T20:35:36.189Z,98032.41
2024-01-24T20:38:36.704Z,98017.09
2024-01-24T20:41:28.066Z,98026.69
2024-01-24T20:44:28.290Z,98017.56
2024-01-24T20:47:44.057Z,98010.69
2024-01-24T20:50:51.426Z,98019.22
2024-01-24T20:54:10.349Z,98014.59
2024-01-24T20:56:59.655Z,98018.25
2024-01-24T20:59:50.940Z,98009.59
2024-01-24T21:02:43.606Z,98020.94
2024-01-24T21:05:42.610Z,98011.59
2024-01-24T21:08:34.451Z,98006.38
2024-01-24T21:11:29.783Z,97995.81
2024-01-24T21:14:28.668Z,98005.56
2024-01-24T21:17:33.992Z,97999.72
2024-01-24T21:20:36.687Z,97994.03
2024-01-24T21:23:41.533Z,97986.22
2024-01-24T21:26:43.343Z,97996.25
2024-01-24T21:29:34.789Z,97982.81
2024-01-24T21:32:34.691Z,97991.88
2024-01-24T21:35:30.697Z,97986.34
2024-01-24T21:38:26.632Z,97993.19
2024-01-24T21:41:26.373Z,97991.09
2024-01-24T21:44:16.483Z,97985.09
2024-01-24T21:47:04.979Z,97979.78
2024-01-24T21:50:00.923Z,97976.00
2024-01-24T21:52:56.084Z,97975.56
2024-01-24T21:55:59.400Z,97979.44
2024-01-24T21:58:57.444Z,97976.13
2024-01-24T22:01:49.133Z,97984.69
2024-01-24T22:04:48.225Z,97976.72
2024-01-24T22:07:44.274Z,97963.91
2024-01-24T22:10:48.500Z,97974.91
2024-01-24T22:13:49.499Z,97968.50
2024-01-24T22:16:43.083Z,97964.44
2024-01-24T22:19:48.855Z,97964.09
2024-01-24T22:22:38.827Z,97955.63
2024-01-24T22:25:42.160Z,97967.16
2024-01-24T22:28:33.380Z,97960.28
2024-01-24T22:31:28.487Z,97961.84
2024-01-24T22:34:24.673Z,97954.50
2024-01-24T22:37:20.273Z,97952.28
2024-01-24T22:40:20.431Z,97951.19
2024-01-24T22:43:18.887Z,97956.06
2024-01-24T22:46:09.227Z,97948.22
2024-01-24T22:49:01.330Z,97941.59
2024-01-24T22:52:04.269Z,97948.31
2024-01-24T22:55:06.336Z,97940.38
2024-01-24T22:57:56.267Z,97929.53
2024-01-24T23:01:01.538Z,97931.28
2024-01-24T23:03:59.872Z,97945.72
2024-01-24T23:06:51.646Z,97939.69
2024-01-24T23:09:54.295Z,97940.72
2024-01-24T23:12:51.028Z,97936.69
2024-01-24T23:15:53.565Z,97932.94
2024-01-24T23:18:43.129Z,97932.16
2024-01-24T23:21:55.374Z,97932.41
2024-01-24T23:25:02.439Z,97935.25
2024-01-24T23:27:57.770Z,97930.41
2024-01-24T23:30:54.777Z,97926.31
2024-01-24T23:33:51.875Z,97927.78
2024-01-24T23:36:50.013Z,97915.72
2024-01-24T23:39:41.698Z,97925.66
2024-01-24T23:42:35.560Z,97921.16
2024-01-24T23:45:37.782Z,97915.97
2024-01-24T23:48:44.037Z,97921.25
2024-01-24T23:51:45.258Z,97911.72
2024-01-24T23:54:53.128Z,97917.88
2024-01-24T23:57:48.275Z,97911.88
